TAF.NORTH.NIGHT

 

22 MARCH 2017

 

Forecaster

 

Pornnapa Thongduang

 

                   1703221700Z   เวลา 24.00 น.

TAF VTCC 221700Z 2218/2324 22005KT 8000 FEW040=

TAF VTCT 221700Z 2218/2324 22005KT 7000 FEW040=

TAF VTCH 221700Z 2218/2318 22005KT 5000 HZ FEW040

         BECMG 2222/2224 3000 BR

         BECMG 2302/2304 5000 HZ=

TAF VTCN  221700Z 2218/2318 22005KT 7000 FEW040=

TAF VTCP  221700Z 2218/2318 22005KT 6000 FEW040=

TAF VTCL  221700Z 2218/2318 22005KT 7000 FEW040=

TAF VTPP  221700Z 2218/2318 18005KT 7000 FEW040=

TAF VTPT 221700Z 2218/2318 18005KT 6000 FEW040=

TAF VTPM  221700Z 2218/2318 18005KT 7000 FEW040=

TAF VTPO 221700Z 2218/2318 18005KT 6000 FEW040=

TAF VTPB  221700Z 2218/2318 18005KT 7000 FEW040=

         1703222300Z เวลา 06.00 น.

TAF VTCC 222300Z 2300/2406 22005KT 8000 FEW040=

TAF VTCT 222300Z 2300/2406 22005KT 7000 FEW040=

TAF VTCH 222300Z 2300/2324 VRB03KT 3000 BR FEW040

         BECMG 2302/2304 22005KT 5000 HZ=

TAF VTCN 222300Z 2300/2324 22005KT 7000 FEW040=

TAF VTCP 222300Z 2300/2324 22005KT 6000 FEW040=

TAF VTCL 222300Z 2300/2324 22005KT 7000 FEW040=

TAF VTPP 222300Z 2300/2324 18005KT 7000 FEW040=

TAF VTPT 222300Z 2300/2324 18005KT 6000 FEW040=

TAF VTPM 222300Z 2300/2324 18005KT 7000 FEW040=

TAF VTPO 222300Z 2300/2324 18005KT 6000 FEW040=

TAF VTPB 222300Z 2300/2324 18005KT 7000 FEW040=

       

http://www.mobile-barcodes.com/qr-code-generator/generator.php?str=http://www.cmmet.tmd.go.th&barcode=url

                                                           QR Code ศูนย์อุตุนิยมวิทยาภาคเหนือ